Flight Track Log - Related Links

Times and Time Zones

All times are in EDT time to prevent confusion due to time zone crossing. See the TAM3210 flight status page for this flight to view local times or setup timezone preferences in your user account.

Time Position Orientation Groundspeed Altitude Reporting Facility
EDT Latitude Longitude Course Direction KTS MPH feet Rate Location/Type
Mon 06:21:58 AM -23.6160 -46.6640 327° Northwest 160 184 2,900  Level FlightAware ADS-B
Mon 06:22:28 AM -23.5940 -46.6780 330° Northwest 183 211 3,700 1,543 Climbing FlightAware ADS-B
Mon 06:22:33 AM -23.5900 -46.6780 360° North 185 213 3,800 1,800 Climbing FlightAware ADS-B
Mon 06:22:58 AM -23.5730 -46.6670 31° Northeast 201 231 4,600 1,543 Climbing FlightAware ADS-B
Mon 06:23:08 AM -23.5700 -46.6560 73° East 214 246 4,700 1,167 Climbing FlightAware ADS-B
Mon 06:23:34 AM -23.5810 -46.6280 113° Southeast 242 278 5,300 1,435 Climbing FlightAware ADS-B
Mon 06:23:54 AM -23.5940 -46.6080 125° Southeast 234 269 5,800 1,125 Climbing FlightAware ADS-B
Mon 06:24:06 AM -23.6020 -46.5970 128° Southeast 230 265 5,900 214 Climbing FlightAware ADS-B
Mon 06:24:22 AM -23.6110 -46.5800 120° Southeast 236 272 5,900  Level FlightAware ADS-B
Mon 06:24:28 AM -23.6110 -46.5740 90° East 240 276 5,900 923 Level FlightAware ADS-B
Mon 06:24:48 AM -23.6080 -46.5560 80° East 260 299 6,300 1,200 Climbing FlightAware ADS-B
Mon 06:25:08 AM -23.6000 -46.5240 75° East 283 326 6,700 1,800 Climbing FlightAware ADS-B
Mon 06:25:28 AM -23.5930 -46.4950 75° East 293 337 7,500 2,049 Climbing FlightAware ADS-B
Mon 06:25:49 AM -23.5860 -46.4660 75° East 304 350 8,100 1,535 Climbing FlightAware ADS-B
Mon 06:26:11 AM -23.5790 -46.4350 76° East 307 353 8,600 1,650 Climbing FlightAware ADS-B
Mon 06:26:29 AM -23.5690 -46.4060 69° East 307 353 9,200 2,200 Climbing FlightAware ADS-B
Mon 06:26:41 AM -23.5600 -46.3940 51° Northeast 306 352 9,700 2,280 Climbing FlightAware ADS-B
Mon 06:27:19 AM -23.5200 -46.3490 46° Northeast 321 369 11,100 2,500 Climbing FlightAware ADS-B
Mon 06:27:29 AM -23.5130 -46.3420 43° Northeast 319 367 11,700 3,120 Climbing FlightAware ADS-B
Mon 06:27:44 AM -23.4870 -46.3280 26° Northeast 316 364 12,400 1,920 Climbing FlightAware ADS-B
Mon 06:28:19 AM -23.4430 -46.3110 20° North 338 389 13,300 1,286 Climbing FlightAware ADS-B
Mon 06:28:54 AM -23.3850 -46.2890 19° North 370 426 13,900 1,371 Climbing FlightAware ADS-B
Mon 06:29:29 AM -23.3280 -46.2660 20° North 385 443 14,900 2,057 Climbing FlightAware ADS-B
Mon 06:30:04 AM -23.2670 -46.2420 20° North 388 447 16,300 2,057 Climbing FlightAware ADS-B
Mon 06:30:39 AM -23.2060 -46.2170 21° North 400 460 17,300 1,886 Climbing FlightAware ADS-B
Mon 06:31:14 AM -23.1460 -46.1930 20° North 403 464 18,500 1,886 Climbing FlightAware ADS-B
Mon 06:31:49 AM -23.0840 -46.1660 22° Northeast 412 474 19,500 1,690 Climbing FlightAware ADS-B
Mon 06:32:25 AM -23.0280 -46.1260 33° Northeast 416 479 20,500 1,636 Climbing FlightAware ADS-B
Mon 06:32:55 AM -22.9770 -46.0900 33° Northeast 422 486 21,300 1,421 Climbing FlightAware ADS-B
Mon 06:33:41 AM -22.9020 -46.0400 32° Northeast 434 499 22,300 1,481 Climbing FlightAware ADS-B
Mon 06:34:16 AM -22.8450 -46.0010 32° Northeast 438 504 23,300 1,714 Climbing FlightAware ADS-B
Mon 06:34:51 AM -22.7800 -45.9610 30° Northeast 437 503 24,300 1,543 Climbing FlightAware ADS-B
Mon 06:35:26 AM -22.7190 -45.9340 22° Northeast 445 512 25,100 1,543 Climbing FlightAware ADS-B
Mon 06:36:01 AM -22.6430 -45.9010 22° Northeast 445 512 26,100 1,701 Climbing FlightAware ADS-B
Mon 06:36:33 AM -22.5860 -45.8750 23° Northeast 444 511 27,000 1,417 Climbing FlightAware ADS-B
Mon 06:37:13 AM -22.5080 -45.8390 23° Northeast 454 522 27,800 880 Climbing FlightAware ADS-B
Mon 06:37:48 AM -22.4370 -45.8060 23° Northeast 469 540 28,100 738 Climbing FlightAware ADS-B
Mon 06:38:18 AM -22.3820 -45.7820 22° Northeast 475 547 28,600 1,200 Climbing FlightAware ADS-B
Mon 06:39:03 AM -22.2850 -45.7310 26° Northeast 480 552 29,600 1,253 Climbing FlightAware ADS-B
Mon 06:39:49 AM -22.1970 -45.6750 31° Northeast 484 557 30,500 1,342 Climbing FlightAware ADS-B
Mon 06:40:19 AM -22.1410 -45.6380 31° Northeast 481 554 31,300 1,569 Climbing FlightAware ADS-B
Mon 06:40:54 AM -22.0750 -45.5960 31° Northeast 476 548 32,200 1,286 Climbing FlightAware ADS-B
Mon 06:41:29 AM -22.0120 -45.5560 30° Northeast 477 549 32,800 686 Climbing FlightAware ADS-B
Mon 06:42:04 AM -21.9400 -45.5100 31° Northeast 481 554 33,000 169 Climbing FlightAware ADS-B
Mon 06:42:40 AM -21.8710 -45.4650 31° Northeast 497 572 33,000  Level FlightAware ADS-B
Mon 06:43:15 AM -21.8080 -45.4250 31° Northeast 501 577 33,000  Level FlightAware ADS-B
Mon 06:43:51 AM -21.7320 -45.3770 30° Northeast 502 578 33,000  Level FlightAware ADS-B
Mon 06:44:22 AM -21.6690 -45.3370 31° Northeast 502 578 33,000  Level FlightAware ADS-B
Mon 06:44:59 AM -21.5940 -45.2890 31° Northeast 501 577 33,000  Level FlightAware ADS-B
Mon 06:45:32 AM -21.5240 -45.2450 30° Northeast 500 575 33,000  Level FlightAware ADS-B
Mon 06:46:08 AM -21.4540 -45.2010 30° Northeast 499 574 33,000  Level FlightAware ADS-B
Mon 06:46:48 AM -21.3740 -45.1490 31° Northeast 497 572 33,000  Level FlightAware ADS-B
Mon 06:47:22 AM -21.3050 -45.1060 30° Northeast 495 570 33,000  Level FlightAware ADS-B
Mon 06:47:59 AM -21.2370 -45.0630 31° Northeast 494 568 33,000 -455 Level FlightAware ADS-B
Mon 06:48:28 AM -21.1770 -45.0250 31° Northeast 488 562 32,500 -1,500 Descending FlightAware ADS-B
Mon 06:49:03 AM -21.1090 -44.9820 31° Northeast 478 550 31,400 -1,833 Descending FlightAware ADS-B
Mon 06:49:40 AM -21.0430 -44.9400 31° Northeast 467 537 30,300 -1,750 Descending FlightAware ADS-B
Mon 06:50:15 AM -20.9750 -44.8980 30° Northeast 455 524 29,300 -1,800 Descending FlightAware ADS-B
Mon 06:50:50 AM -20.9100 -44.8570 31° Northeast 449 517 28,200 -1,944 Descending FlightAware ADS-B
Mon 06:51:26 AM -20.8470 -44.8170 31° Northeast 444 511 27,000 -2,025 Descending FlightAware ADS-B
Mon 06:52:10 AM -20.7690 -44.7680 30° Northeast 437 503 25,500 -2,027 Descending FlightAware ADS-B
Mon 06:52:40 AM -20.7170 -44.7350 31° Northeast 432 497 24,500 -1,944 Descending FlightAware ADS-B
Mon 06:53:21 AM -20.6490 -44.6920 31° Northeast 424 488 23,200 -1,859 Descending FlightAware ADS-B
Mon 06:53:51 AM -20.5990 -44.6610 30° Northeast 417 480 22,300 -1,846 Descending FlightAware ADS-B
Mon 06:54:26 AM -20.5410 -44.6250 30° Northeast 409 471 21,200 -1,865 Descending FlightAware ADS-B
Mon 06:55:05 AM -20.4760 -44.5840 31° Northeast 400 460 20,000 -1,800 Descending FlightAware ADS-B
Mon 06:55:36 AM -20.4280 -44.5540 30° Northeast 394 453 19,100 -1,754 Descending FlightAware ADS-B
Mon 06:56:10 AM -20.3740 -44.5200 31° Northeast 389 448 18,100 -1,703 Descending FlightAware ADS-B
Mon 06:56:50 AM -20.3120 -44.4820 30° Northeast 382 440 17,000 -1,667 Descending FlightAware ADS-B
Mon 06:57:22 AM -20.2640 -44.4590 24° Northeast 375 432 16,100 -1,676 Descending FlightAware ADS-B
Mon 06:57:58 AM -20.2050 -44.4350 21° North 369 425 15,100 -1,606 Descending FlightAware ADS-B
Mon 06:58:33 AM -20.1480 -44.4110 22° Northeast 362 417 14,200 -1,565 Descending FlightAware ADS-B
Mon 06:59:07 AM -20.0950 -44.3880 22° Northeast 355 409 13,300 -1,083 Descending FlightAware ADS-B
Mon 06:59:45 AM -20.0430 -44.3660 22° Northeast 328 377 12,900 -904 Descending FlightAware ADS-B
Mon 07:00:20 AM -19.9930 -44.3450 22° Northeast 319 367 12,200 -1,286 Descending FlightAware ADS-B
Mon 07:00:55 AM -19.9460 -44.3250 22° Northeast 312 359 11,400 -1,385 Descending FlightAware ADS-B
Mon 07:01:25 AM -19.9050 -44.3080 21° North 306 352 10,700 -1,364 Descending FlightAware ADS-B
Mon 07:02:01 AM -19.8590 -44.2890 21° North 301 346 9,900 -1,309 Descending FlightAware ADS-B
Mon 07:02:20 AM -19.8310 -44.2770 22° Northeast 300 345 9,500 -1,059 Descending FlightAware ADS-B
Mon 07:02:52 AM -19.7930 -44.2610 22° Northeast 300 345 9,000 -566 Descending FlightAware ADS-B
Mon 07:03:13 AM -19.7660 -44.2500 21° North 279 321 9,000  Level FlightAware ADS-B
Mon 07:03:36 AM -19.7360 -44.2370 22° Northeast 269 310 9,000  Level FlightAware ADS-B
Mon 07:03:48 AM -19.7240 -44.2350 North 269 310 9,000  Level FlightAware ADS-B
Mon 07:04:13 AM -19.6920 -44.2360 358° North 264 304 9,000 -490 Level FlightAware ADS-B
Mon 07:04:37 AM -19.6620 -44.2380 356° North 261 300 8,600 -955 Descending FlightAware ADS-B
Mon 07:04:57 AM -19.6380 -44.2390 358° North 256 295 8,300 -1,000 Descending FlightAware ADS-B
Mon 07:05:19 AM -19.6130 -44.2400 358° North 251 289 7,900 -1,286 Descending FlightAware ADS-B
Mon 07:05:39 AM -19.5900 -44.2420 355° North 254 292 7,400 -1,200 Descending FlightAware ADS-B
Mon 07:05:59 AM -19.5670 -44.2430 358° North 249 287 7,100 -857 Descending FlightAware ADS-B
Mon 07:06:14 AM -19.5490 -44.2440 357° North 244 281 6,900 -1,029 Descending FlightAware ADS-B
Mon 07:06:34 AM -19.5260 -44.2440 360° North 239 275 6,500 -1,017 Descending FlightAware ADS-B
Mon 07:07:13 AM -19.4840 -44.2460 357° North 231 266 5,900 -686 Descending FlightAware ADS-B
Mon 07:07:44 AM -19.4950 -44.2450 175° South 230 265 5,700 -316 Descending FlightAware ADS-B
Mon 07:07:51 AM -19.4490 -44.2370 North 229 264 5,700 -706 Level FlightAware ADS-B
Mon 07:08:01 AM -19.4420 -44.2260 56° Northeast 226 260 5,500 -1,125 Descending FlightAware ADS-B
Mon 07:08:07 AM -19.4400 -44.2200 71° East 223 257 5,400 -1,071 Descending FlightAware ADS-B
Mon 07:08:29 AM -19.4430 -44.1950 97° East 221 254 5,000 -857 Descending FlightAware ADS-B
Mon 07:08:49 AM -19.4460 -44.1740 99° East 217 250 4,800 -308 Descending FlightAware ADS-B
Mon 07:09:08 AM -19.4500 -44.1540 102° East 219 252 4,800  Level FlightAware ADS-B
Mon 07:09:24 AM -19.4540 -44.1380 105° East 221 254 4,800  Level FlightAware ADS-B
Mon 07:09:33 AM -19.4610 -44.1290 130° Southeast 225 259 4,800  Level FlightAware ADS-B
Mon 07:09:54 AM -19.4760 -44.1140 137° Southeast 226 260 4,800  Level FlightAware ADS-B
Mon 07:10:13 AM -19.4920 -44.1000 140° Southeast 224 258 4,800  Level FlightAware ADS-B
Mon 07:10:34 AM -19.5070 -44.0850 137° Southeast 226 260 4,800 -143 Level FlightAware ADS-B
Mon 07:10:55 AM -19.5230 -44.0710 140° Southeast 221 254 4,700  Descending FlightAware ADS-B
Mon 07:11:26 AM -19.5430 -44.0520 138° Southeast 216 249 4,800 -783 Climbing FlightAware ADS-B
Mon 07:11:41 AM -19.5580 -44.0390 141° Southeast 190 219 4,100 -1,800 Descending FlightAware ADS-B
Mon 07:11:56 AM -19.5650 -44.0320 137° Southeast 176 203 3,900 -750 Descending FlightAware ADS-B
Mon 07:12:21 AM -19.5800 -44.0190 141° Southeast 159 183 3,600 -800 Descending FlightAware ADS-B
Mon 07:12:41 AM -19.5910 -44.0090 139° Southeast 146 168 3,300 -857 Descending FlightAware ADS-B
Mon 07:13:10 AM -19.6060 -43.9940 137° Southeast 143 165 2,900 -682 Descending FlightAware ADS-B
Mon 07:13:25 AM -19.6130 -43.9880 141° Southeast 143 165 2,800 -400 Descending FlightAware ADS-B
Mon 07:13:55 AM -19.6280 -43.9740 139° Southeast 135 155 -5,600 Descending FlightAware ADS-B

Login

Don't have an account? Register now (free) for customized features, flight alerts, and more!